Time;durP1;ratioP1;P1;durP2;ratioP2;P2;SDS_P1;SDS_P2;PMS_P1;PMS_P2;Temp;Humidity;BMP_temperature;BMP_pressure;BME280_temperature;BME280_humidity;BME280_pressure;Samples;Min_cycle;Max_cycle;Signal;HPM_P1;HPM_P2
2022/03/11 00:00:21;;;;;;;1999.90;999.90;;;;;;;2.11;43.91;102568.22;15334080;29;20444;-63
2022/03/11 00:07:55;;;;;;;1999.90;999.90;;;;;;;2.00;43.76;102556.09;15338405;28;20382;-62
2022/03/11 00:15:27;;;;;;;1999.90;999.90;;;;;;;2.05;43.54;102543.53;15334484;28;20051;-63
2022/03/11 00:23:00;;;;;;;1999.90;999.90;;;;;;;2.02;43.39;102544.84;15346252;29;20102;-61
2022/03/11 00:30:32;;;;;;;;;;;;;;;1.99;43.36;102553.56;15332120;29;20043;-61
2022/03/11 00:38:06;;;;;;;1999.90;999.90;;;;;;;1.89;43.89;102550.50;15296270;29;19933;-63
2022/03/11 00:45:38;;;;;;;1999.90;999.90;;;;;;;1.84;43.82;102548.44;15292842;29;20040;-64
2022/03/11 00:53:12;;;;;;;1999.90;999.90;;;;;;;1.89;43.95;102554.09;15365904;23;20069;-61
2022/03/11 01:00:44;;;;;;;1999.90;999.90;;;;;;;1.85;43.47;102549.28;15353034;28;20035;-60
2022/03/11 01:08:17;;;;;;;1999.90;999.90;;;;;;;1.64;43.51;102542.31;15363443;28;20126;-58
2022/03/11 01:15:49;;;;;;;1999.90;999.90;;;;;;;1.60;43.20;102530.94;15355491;29;20043;-61
2022/03/11 01:23:25;;;;;;;1999.90;999.90;;;;;;;1.56;43.38;102524.19;15362992;29;20147;-62
2022/03/11 01:30:58;;;;;;;1999.90;999.90;;;;;;;1.38;43.34;102529.72;15362121;29;20039;-59
2022/03/11 01:38:32;;;;;;;1999.90;999.90;;;;;;;1.57;43.15;102527.81;15361764;28;20124;-60
2022/03/11 01:46:04;;;;;;;1999.90;999.90;;;;;;;1.38;43.83;102518.72;15360449;29;20404;-61
2022/03/11 01:53:38;;;;;;;1999.90;999.90;;;;;;;1.36;43.89;102520.84;15362868;29;20209;-61
2022/03/11 02:01:10;;;;;;;1999.90;999.90;;;;;;;1.33;43.94;102522.13;15358390;29;20083;-62
2022/03/11 02:08:44;;;;;;;1999.90;999.90;;;;;;;1.41;43.76;102529.25;15361027;28;20130;-61
2022/03/11 02:16:19;;;;;;;1999.90;999.90;;;;;;;1.20;44.79;102526.94;15360292;29;20054;-60
2022/03/11 02:23:54;;;;;;;1999.90;999.90;;;;;;;1.20;44.37;102515.94;15361059;28;20066;-61
2022/03/11 02:31:28;;;;;;;1999.90;999.90;;;;;;;1.14;44.57;102502.00;15358958;29;20059;-61
2022/03/11 02:39:03;;;;;;;1999.90;999.90;;;;;;;1.25;44.01;102511.44;15348570;29;20515;-61
2022/03/11 02:46:35;;;;;;;1999.90;999.90;;;;;;;1.28;44.30;102507.38;15345393;29;20043;-61
2022/03/11 02:54:09;;;;;;;1999.90;999.90;;;;;;;0.83;45.46;102513.06;15358200;28;20369;-62
2022/03/11 03:01:41;;;;;;;;;;;;;;;1.02;45.03;102502.97;15356300;29;20176;-60
2022/03/11 03:09:14;;;;;;;1999.90;999.90;;;;;;;0.61;46.29;102498.03;15357062;29;20358;-61
2022/03/11 03:16:46;;;;;;;1999.90;999.90;;;;;;;0.66;45.30;102490.00;15344674;28;20341;-61
2022/03/11 03:24:21;;;;;;;1999.90;999.90;;;;;;;0.76;46.21;102502.16;15357202;28;20720;-63
2022/03/11 03:31:58;;;;;;;1999.90;999.90;;;;;;;0.41;46.52;102498.19;15358195;28;20226;-62
2022/03/11 03:39:31;;;;;;;1999.90;999.90;;;;;;;0.28;47.20;102493.63;15357138;28;20263;-62
2022/03/11 03:47:04;;;;;;;1999.90;999.90;;;;;;;0.19;46.93;102493.03;15354858;29;20065;-62
2022/03/11 03:54:38;;;;;;;1999.90;999.90;;;;;;;0.36;47.17;102487.88;15356518;28;20440;-61
2022/03/11 04:02:10;;;;;;;;;;;;;;;0.38;46.85;102487.66;15354751;28;20062;-60
2022/03/11 04:09:43;;;;;;;1999.90;999.90;;;;;;;0.30;46.83;102494.25;15355254;28;19922;-61
2022/03/11 04:17:15;;;;;;;;;;;;;;;0.23;47.09;102479.75;15339499;29;20043;-60
2022/03/11 04:24:49;;;;;;;1999.90;999.90;;;;;;;0.04;47.57;102461.47;15355682;28;19923;-59
2022/03/11 04:32:21;;;;;;;1999.90;999.90;;;;;;;0.02;47.43;102480.09;15361729;28;20047;-60
2022/03/11 04:39:54;;;;;;;1999.90;999.90;;;;;;;-0.03;48.06;102480.72;15369070;28;20085;-61
2022/03/11 04:47:26;;;;;;;;;;;;;;;-0.04;47.82;102460.66;15367965;28;20051;-61
2022/03/11 04:55:00;;;;;;;1999.90;999.90;;;;;;;-0.16;47.61;102467.94;15364932;29;19922;-60
2022/03/11 05:02:32;;;;;;;1999.90;999.90;;;;;;;-0.13;47.75;102463.91;15361494;29;20091;-61
2022/03/11 05:10:07;;;;;;;1999.90;999.90;;;;;;;-0.28;48.41;102461.44;15342985;28;20047;-61
2022/03/11 05:17:39;;;;;;;1999.90;999.90;;;;;;;-0.23;48.18;102469.84;15360261;29;20061;-61
2022/03/11 05:25:13;;;;;;;1999.90;999.90;;;;;;;-0.35;47.90;102477.09;15355902;29;20130;-62
2022/03/11 05:32:47;;;;;;;1999.90;999.90;;;;;;;-0.41;47.74;102469.75;15360018;29;20304;-62
2022/03/11 05:40:21;;;;;;;1999.90;999.90;;;;;;;-0.53;48.34;102469.56;15361682;28;20142;-60
2022/03/11 05:47:53;;;;;;;1999.90;999.90;;;;;;;-0.30;47.45;102475.38;15352615;28;20113;-61
2022/03/11 05:55:27;;;;;;;1999.90;999.90;;;;;;;-0.35;47.95;102471.59;15362869;28;20139;-61
2022/03/11 06:03:00;;;;;;;1999.90;999.90;;;;;;;-0.31;47.74;102484.69;15362881;28;20047;-61
2022/03/11 06:10:33;;;;;;;1999.90;999.90;;;;;;;-0.31;47.43;102481.09;15362388;28;20100;-60
2022/03/11 06:18:05;;;;;;;1999.90;999.90;;;;;;;-0.23;47.64;102493.69;15362226;28;20058;-59
2022/03/11 06:25:39;;;;;;;1999.90;999.90;;;;;;;-0.14;47.38;102511.59;15362238;29;20055;-61
2022/03/11 06:33:11;;;;;;;;;;;;;;;0.17;47.18;102500.66;15347528;29;20039;-61
2022/03/11 06:40:44;;;;;;;1999.90;999.90;;;;;;;0.28;46.24;102496.38;15361081;29;19977;-61
2022/03/11 06:48:19;;;;;;;1999.90;999.90;;;;;;;0.55;45.74;102508.03;15376843;23;20135;-63
2022/03/11 06:55:56;;;;;;;1999.90;999.90;;;;;;;1.06;44.77;102510.56;15428083;28;20478;-63
2022/03/11 07:03:28;;;;;;;1999.90;999.90;;;;;;;1.94;42.80;102510.19;15422599;28;20492;-64
2022/03/11 07:11:02;;;;;;;1999.90;999.90;;;;;;;3.23;40.31;102501.34;15425030;28;20141;-64
2022/03/11 07:18:35;;;;;;;1999.90;999.90;;;;;;;2.82;40.16;102498.50;15412966;28;20385;-65
2022/03/11 07:26:28;;;;;;;1999.90;999.90;;;;;;;3.96;38.63;102507.13;15429484;28;20046;-64
2022/03/11 07:34:20;;;;;;;1999.90;999.90;;;;;;;3.76;37.86;102521.34;15429811;28;20082;-64
2022/03/11 07:42:13;;;;;;;1999.90;999.90;;;;;;;3.86;37.21;102504.16;15428104;28;20042;-64
2022/03/11 07:49:48;;;;;;;1999.90;999.90;;;;;;;4.53;36.95;102509.88;15410543;28;20724;-63
2022/03/11 07:57:21;;;;;;;1999.90;999.90;;;;;;;5.15;35.80;102498.72;15426949;28;20070;-63
2022/03/11 08:04:53;;;;;;;1999.90;999.90;;;;;;;5.03;35.18;102513.75;15425688;28;20046;-64
2022/03/11 08:12:30;;;;;;;1999.90;999.90;;;;;;;4.68;35.15;102506.53;15424694;28;20431;-63
2022/03/11 08:20:02;;;;;;;1999.90;999.90;;;;;;;5.10;34.42;102504.16;15425140;28;20262;-65
2022/03/11 08:27:36;;;;;;;1999.90;999.90;;;;;;;5.39;33.69;102504.88;15424846;28;20575;-62
2022/03/11 08:35:09;;;;;;;1999.90;999.90;;;;;;;6.54;32.44;102514.06;15424776;28;20039;-65
2022/03/11 08:42:44;;;;;;;1999.90;999.90;;;;;;;6.71;31.72;102494.53;15423578;28;20065;-65
2022/03/11 08:50:17;;;;;;;1999.90;999.90;;;;;;;7.15;31.42;102502.66;15425771;28;20065;-66
2022/03/11 08:57:53;;;;;;;1999.90;999.90;;;;;;;7.18;30.43;102504.88;15425781;28;20093;-64
2022/03/11 09:05:26;;;;;;;1999.90;999.90;;;;;;;7.32;29.90;102506.13;15415212;28;20068;-64
2022/03/11 09:12:59;;;;;;;1999.90;999.90;;;;;;;8.11;28.87;102493.97;15423532;28;20051;-64
2022/03/11 09:20:31;;;;;;;1999.90;999.90;;;;;;;8.63;28.91;102501.34;15431667;28;20058;-63
2022/03/11 09:28:10;;;;;;;1999.90;999.90;;;;;;;8.55;27.24;102513.06;15435803;28;20138;-64
2022/03/11 09:35:42;;;;;;;1999.90;999.90;;;;;;;9.19;27.30;102507.75;15433793;28;20047;-64
2022/03/11 09:43:16;;;;;;;1999.90;999.90;;;;;;;8.80;26.72;102504.72;15436172;28;20049;-64
2022/03/11 09:50:48;;;;;;;1999.90;999.90;;;;;;;9.43;27.41;102496.84;15433896;28;20047;-64
2022/03/11 09:58:23;;;;;;;1999.90;999.90;;;;;;;9.68;25.47;102493.13;15432604;28;20049;-63
2022/03/11 10:05:55;;;;;;;1999.90;999.90;;;;;;;10.16;26.29;102496.28;15432016;28;20041;-64
2022/03/11 10:13:38;;;;;;;1999.90;999.90;;;;;;;10.40;25.92;102488.91;15431322;28;20082;-64
2022/03/11 10:21:10;;;;;;;1999.90;999.90;;;;;;;10.23;26.19;102480.09;15432092;28;20043;-64
2022/03/11 10:28:56;;;;;;;1999.90;999.90;;;;;;;10.39;25.31;102467.72;15431049;28;20062;-65
2022/03/11 10:36:29;;;;;;;1999.90;999.90;;;;;;;11.45;24.30;102469.84;15431734;28;20043;-63
2022/03/11 10:44:09;;;;;;;1999.90;999.90;;;;;;;11.34;23.69;102473.88;15429966;28;20061;-65
2022/03/11 10:51:41;;;;;;;1999.90;999.90;;;;;;;11.59;23.05;102481.16;15428736;28;20051;-65
2022/03/11 10:59:24;;;;;;;1999.90;999.90;;;;;;;11.97;22.24;102466.16;15409905;28;20047;-63
2022/03/11 11:06:56;;;;;;;1999.90;999.90;;;;;;;11.46;23.34;102466.78;15430335;28;20043;-62
2022/03/11 11:14:31;;;;;;;1999.90;999.90;;;;;;;12.39;22.55;102439.22;15428565;28;20051;-64
2022/03/11 11:22:05;;;;;;;1999.90;999.90;;;;;;;13.53;21.63;102449.84;15428898;28;20039;-64
2022/03/11 11:29:42;;;;;;;1999.90;999.90;;;;;;;12.42;22.73;102447.88;15426812;28;20051;-65
2022/03/11 11:37:38;;;;;;;1999.90;999.90;;;;;;;12.95;21.83;102429.91;15428089;28;20126;-64
2022/03/11 11:45:42;;;;;;;1999.90;999.90;;;;;;;12.90;21.58;102419.59;15426693;28;20484;-66
2022/03/11 11:53:32;;;;;;;1999.90;999.90;;;;;;;12.21;21.73;102409.31;15426850;28;20459;-63
2022/03/11 12:01:44;;;;;;;1999.90;999.90;;;;;;;13.14;20.22;102399.00;15425422;28;20141;-65
2022/03/11 12:09:51;;;;;;;1999.90;999.90;;;;;;;14.46;20.41;102386.88;15425568;28;20053;-65
2022/03/11 12:17:37;;;;;;;1999.90;999.90;;;;;;;14.10;20.02;102374.50;15425414;28;20051;-65
2022/03/11 12:25:13;;;;;;;1999.90;999.90;;;;;;;12.12;20.59;102364.38;15425387;28;20058;-67
2022/03/11 12:32:48;;;;;;;1999.90;999.90;;;;;;;13.66;21.36;102364.03;15424415;28;20058;-64
2022/03/11 12:40:21;;;;;;;1999.90;999.90;;;;;;;13.88;19.49;102326.78;15426849;28;20055;-64
2022/03/11 12:47:55;;;;;;;1999.90;999.90;;;;;;;13.16;20.38;102338.69;15424395;28;20047;-66
2022/03/11 12:55:30;;;;;;;1999.90;999.90;;;;;;;13.35;19.48;102327.41;15433625;28;20508;-65
2022/03/11 13:03:06;;;;;;;1999.90;999.90;;;;;;;13.63;19.63;102311.34;15418698;28;20082;-64
2022/03/11 13:10:38;;;;;;;1999.90;999.90;;;;;;;14.14;18.76;102304.53;15436893;28;20050;-65
2022/03/11 13:18:17;;;;;;;1999.90;999.90;;;;;;;14.44;18.55;102306.56;15419453;28;20049;-64
2022/03/11 13:25:53;;;;;;;1999.90;999.90;;;;;;;13.56;20.29;102294.13;15435786;28;20122;-65
2022/03/11 13:33:29;;;;;;;1999.90;999.90;;;;;;;14.29;18.79;102287.31;15430491;28;20094;-63
2022/03/11 13:41:02;;;;;;;1999.90;999.90;;;;;;;13.99;18.26;102279.66;15417018;28;20050;-64
2022/03/11 13:48:36;;;;;;;1999.90;999.90;;;;;;;11.13;20.88;102264.53;15433051;28;20530;-64
2022/03/11 13:56:19;;;;;;;1999.90;999.90;;;;;;;10.82;21.46;102268.81;15413048;28;20319;-63
2022/03/11 14:03:52;;;;;;;1999.90;999.90;;;;;;;11.11;22.14;102269.59;15378009;28;20043;-64
2022/03/11 14:11:25;;;;;;;1999.90;999.90;;;;;;;10.90;22.63;102255.03;15418185;28;20047;-63
2022/03/11 14:19:01;;;;;;;1999.90;999.90;;;;;;;11.08;21.88;102258.19;15431611;28;20122;-62
2022/03/11 14:26:33;;;;;;;1999.90;999.90;;;;;;;10.58;22.58;102235.34;15433659;28;20054;-58
2022/03/11 14:34:07;;;;;;;1999.90;999.90;;;;;;;10.69;22.96;102231.28;15431591;28;20054;-62
2022/03/11 14:41:39;;;;;;;1999.90;999.90;;;;;;;10.58;22.09;102229.75;15431174;28;20049;-63
2022/03/11 14:49:12;;;;;;;1999.90;999.90;;;;;;;10.65;23.04;102227.44;15427167;28;20101;-63
2022/03/11 14:56:46;;;;;;;1999.90;999.90;;;;;;;10.59;22.18;102223.84;15418595;28;20046;-63
2022/03/11 15:04:21;;;;;;;1999.90;999.90;;;;;;;10.69;23.29;102220.94;15428681;28;20267;-63
2022/03/11 15:11:53;;;;;;;1999.90;999.90;;;;;;;10.45;23.17;102214.53;15427615;28;20031;-62
2022/03/11 15:19:27;;;;;;;1999.90;999.90;;;;;;;10.68;23.39;102198.91;15386117;28;20453;-62
2022/03/11 15:27:02;;;;;;;;;;;;;;;10.04;22.77;102202.94;15388955;28;20309;-62
2022/03/11 15:34:36;;;;;;;1999.90;999.90;;;;;;;9.95;22.89;102199.13;15395644;28;20007;-63
2022/03/11 15:42:09;;;;;;;1999.90;999.90;;;;;;;9.94;24.01;102184.34;15398321;28;20047;-63
2022/03/11 15:49:44;;;;;;;1999.90;999.90;;;;;;;9.91;23.74;102181.31;15405199;28;20125;-62
2022/03/11 15:57:16;;;;;;;1999.90;999.90;;;;;;;9.62;23.90;102176.53;15414403;28;20416;-62
2022/03/11 16:04:50;;;;;;;1999.90;999.90;;;;;;;9.62;23.93;102178.50;15413204;28;20091;-61
2022/03/11 16:12:22;;;;;;;1999.90;999.90;;;;;;;9.61;24.13;102179.63;15427799;28;20054;-63
2022/03/11 16:19:56;;;;;;;1999.90;999.90;;;;;;;9.20;24.72;102180.75;15397394;28;20051;-64
2022/03/11 16:27:29;;;;;;;1999.90;999.90;;;;;;;9.11;24.68;102176.06;15438056;28;20102;-62
2022/03/11 16:35:03;;;;;;;1999.90;999.90;;;;;;;8.94;25.16;102180.06;15446538;28;20075;-61
2022/03/11 16:42:35;;;;;;;1999.90;999.90;;;;;;;8.60;25.54;102177.16;15442346;28;20496;-61
2022/03/11 16:50:10;;;;;;;1999.90;999.90;;;;;;;8.06;25.82;102169.50;15426464;28;20055;-60
2022/03/11 16:57:42;;;;;;;1999.90;999.90;;;;;;;8.27;25.83;102186.97;15437469;28;20039;-61
2022/03/11 17:05:16;;;;;;;1999.90;999.90;;;;;;;8.01;26.13;102182.56;15442068;28;20046;-61
2022/03/11 17:12:49;;;;;;;1999.90;999.90;;;;;;;7.75;26.48;102193.72;15430371;28;20175;-64
2022/03/11 17:20:25;;;;;;;1999.90;999.90;;;;;;;7.81;27.02;102186.19;15420143;28;20054;-63
2022/03/11 17:27:57;;;;;;;1999.90;999.90;;;;;;;7.70;26.61;102199.25;15362959;28;20035;-64
2022/03/11 17:35:32;;;;;;;1999.90;999.90;;;;;;;7.52;26.97;102191.50;15433698;28;20496;-62
2022/03/11 17:43:05;;;;;;;1999.90;999.90;;;;;;;7.17;27.38;102198.66;15374702;28;20473;-63
2022/03/11 17:50:38;;;;;;;1999.90;999.90;;;;;;;7.15;27.73;102195.31;15396475;28;20241;-65
2022/03/11 17:58:11;;;;;;;1999.90;999.90;;;;;;;6.85;28.21;102198.84;15430494;28;20114;-65
2022/03/11 18:05:47;;;;;;;1999.90;999.90;;;;;;;6.71;27.90;102188.53;15390467;28;20047;-61
2022/03/11 18:13:19;;;;;;;1999.90;999.90;;;;;;;6.53;28.06;102190.66;15414173;28;20478;-62
2022/03/11 18:20:53;;;;;;;1999.90;999.90;;;;;;;6.55;28.57;102187.59;15431481;28;20134;-62
2022/03/11 18:28:27;;;;;;;1999.90;999.90;;;;;;;6.34;28.17;102190.28;15387173;28;20137;-62
2022/03/11 18:36:02;;;;;;;1999.90;999.90;;;;;;;6.40;28.40;102184.78;15436117;28;20051;-64
2022/03/11 18:43:38;;;;;;;1999.90;999.90;;;;;;;6.22;28.63;102197.16;15406276;28;20047;-61
2022/03/11 18:51:11;;;;;;;1999.90;999.90;;;;;;;6.12;29.28;102199.84;15425560;23;20583;-61
2022/03/11 18:58:45;;;;;;;1999.90;999.90;;;;;;;5.86;29.46;102216.28;15421304;28;20453;-63
2022/03/11 19:06:18;;;;;;;;;;;;;;;5.95;29.32;102200.88;15459166;28;20387;-62
2022/03/11 19:13:51;;;;;;;1999.90;999.90;;;;;;;5.77;29.62;102204.84;15464152;28;19948;-63
2022/03/11 19:21:27;;;;;;;1999.90;999.90;;;;;;;5.75;29.79;102207.06;15428577;28;20078;-61
2022/03/11 19:28:59;;;;;;;1999.90;999.90;;;;;;;5.46;30.36;102213.97;15386617;28;20054;-61
2022/03/11 19:36:35;;;;;;;1999.90;999.90;;;;;;;5.47;30.64;102218.41;15402550;28;20555;-62
2022/03/11 19:44:14;;;;;;;1999.90;999.90;;;;;;;5.26;30.95;102216.53;15402513;28;20066;-60
2022/03/11 19:51:48;;;;;;;1999.90;999.90;;;;;;;5.34;31.15;102224.38;15418991;28;20114;-61
2022/03/11 19:59:20;;;;;;;1999.90;999.90;;;;;;;5.11;31.89;102207.00;15440522;28;20051;-63
2022/03/11 20:06:57;;;;;;;1999.90;999.90;;;;;;;5.05;31.62;102221.88;15412310;28;20479;-61
2022/03/11 20:14:31;;;;;;;1999.90;999.90;;;;;;;4.87;32.50;102233.25;15437827;28;20039;-62
2022/03/11 20:22:08;;;;;;;1999.90;999.90;;;;;;;4.80;32.38;102236.25;15438050;28;20399;-60
2022/03/11 20:29:40;;;;;;;1999.90;999.90;;;;;;;4.84;32.23;102237.38;15411053;28;20046;-60
2022/03/11 20:37:14;;;;;;;1999.90;999.90;;;;;;;4.46;33.49;102248.47;15463412;28;20042;-59
2022/03/11 20:44:46;;;;;;;1999.90;999.90;;;;;;;4.48;33.18;102236.09;15428656;28;20047;-61
2022/03/11 20:52:21;;;;;;;1999.90;999.90;;;;;;;4.54;33.30;102237.81;15420250;28;20059;-60
2022/03/11 20:59:55;;;;;;;1999.90;999.90;;;;;;;4.26;33.62;102232.44;15439379;28;20313;-61
2022/03/11 21:07:28;;;;;;;;;;;;;;;4.34;33.51;102218.19;15411552;28;20420;-61
2022/03/11 21:15:05;;;;;;;1999.90;999.90;;;;;;;4.08;34.02;102217.00;15416670;28;19988;-61
2022/03/11 21:22:41;;;;;;;1999.90;999.90;;;;;;;4.05;34.11;102210.03;15432739;28;20038;-61
2022/03/11 21:30:14;;;;;;;1999.90;999.90;;;;;;;3.98;34.28;102214.91;15429058;28;20053;-60
2022/03/11 21:37:48;;;;;;;1999.90;999.90;;;;;;;3.85;34.68;102208.88;15428826;28;20156;-60
2022/03/11 21:45:20;;;;;;;1999.90;999.90;;;;;;;3.84;34.31;102193.41;15477593;28;20050;-61
2022/03/11 21:52:54;;;;;;;1999.90;999.90;;;;;;;3.72;34.71;102194.31;15403125;28;20513;-59
2022/03/11 22:00:26;;;;;;;1999.90;999.90;;;;;;;3.59;34.74;102180.88;15474981;28;20046;-60
2022/03/11 22:08:02;;;;;;;1999.90;999.90;;;;;;;3.99;34.21;102190.88;15403166;28;20147;-61
2022/03/11 22:15:35;;;;;;;1999.90;999.90;;;;;;;3.58;34.84;102189.41;15455775;28;20039;-60
2022/03/11 22:23:09;;;;;;;1999.90;999.90;;;;;;;3.51;34.98;102181.28;15394954;28;20081;-60
2022/03/11 22:30:42;;;;;;;;;;;;;;;3.46;35.07;102190.31;15402422;28;20058;-60
2022/03/11 22:38:18;;;;;;;1999.90;999.90;;;;;;;3.58;34.74;102168.16;15432893;28;19937;-61
2022/03/11 22:45:54;;;;;;;1999.90;999.90;;;;;;;3.26;35.33;102189.97;15437618;28;20085;-57
2022/03/11 22:53:27;;;;;;;1999.90;999.90;;;;;;;3.42;35.08;102189.13;15388200;28;20491;-59
2022/03/11 23:01:00;;;;;;;1999.90;999.90;;;;;;;3.04;35.65;102191.75;15419467;28;20050;-57
2022/03/11 23:16:25;;;;;;;1999.90;999.90;;;;;;;3.09;35.52;102192.66;15434985;28;20057;-61
2022/03/11 23:23:59;;;;;;;1999.90;999.90;;;;;;;3.33;35.10;102171.28;15428287;28;20601;-62
2022/03/11 23:31:31;;;;;;;1999.90;999.90;;;;;;;3.11;35.58;102165.66;15435816;28;20050;-60
2022/03/11 23:39:05;;;;;;;1999.90;999.90;;;;;;;2.79;35.63;102162.59;15422014;28;20108;-61
2022/03/11 23:46:41;;;;;;;1999.90;999.90;;;;;;;2.87;35.66;102175.16;15436334;28;20047;-60
2022/03/11 23:54:16;;;;;;;1999.90;999.90;;;;;;;2.77;35.46;102161.16;15432242;28;20058;-61
